sensor_id;sensor_type;location;lat;lon;timestamp;P1;durP1;ratioP1;P2;durP2;ratioP2
20251;SDS011;10284;58.364;15.550;2023-07-31T00:00:31;5.40;;;2.30;;
20251;SDS011;10284;58.364;15.550;2023-07-31T00:02:57;4.75;;;2.08;;
20251;SDS011;10284;58.364;15.550;2023-07-31T00:05:22;5.22;;;2.30;;
20251;SDS011;10284;58.364;15.550;2023-07-31T00:07:47;5.47;;;2.45;;
20251;SDS011;10284;58.364;15.550;2023-07-31T00:10:13;2.75;;;2.20;;
20251;SDS011;10284;58.364;15.550;2023-07-31T00:12:39;4.32;;;2.10;;
20251;SDS011;10284;58.364;15.550;2023-07-31T00:15:06;7.80;;;2.50;;
20251;SDS011;10284;58.364;15.550;2023-07-31T00:17:32;5.53;;;2.08;;
20251;SDS011;10284;58.364;15.550;2023-07-31T00:19:57;5.47;;;2.33;;
20251;SDS011;10284;58.364;15.550;2023-07-31T00:22:23;3.53;;;2.08;;
20251;SDS011;10284;58.364;15.550;2023-07-31T00:24:48;5.75;;;2.42;;
20251;SDS011;10284;58.364;15.550;2023-07-31T00:27:14;7.10;;;2.15;;
20251;SDS011;10284;58.364;15.550;2023-07-31T00:29:39;5.25;;;2.47;;
20251;SDS011;10284;58.364;15.550;2023-07-31T00:32:05;5.63;;;2.38;;
20251;SDS011;10284;58.364;15.550;2023-07-31T00:34:31;4.55;;;1.85;;
20251;SDS011;10284;58.364;15.550;2023-07-31T00:36:56;7.25;;;2.55;;
20251;SDS011;10284;58.364;15.550;2023-07-31T00:39:22;6.22;;;2.40;;
20251;SDS011;10284;58.364;15.550;2023-07-31T00:41:47;2.55;;;2.10;;
20251;SDS011;10284;58.364;15.550;2023-07-31T00:44:13;5.18;;;2.25;;
20251;SDS011;10284;58.364;15.550;2023-07-31T00:46:38;6.80;;;2.55;;
20251;SDS011;10284;58.364;15.550;2023-07-31T00:49:03;6.10;;;2.65;;
20251;SDS011;10284;58.364;15.550;2023-07-31T00:51:29;4.18;;;2.03;;
20251;SDS011;10284;58.364;15.550;2023-07-31T00:53:55;8.02;;;2.70;;
20251;SDS011;10284;58.364;15.550;2023-07-31T00:56:21;9.80;;;2.70;;
20251;SDS011;10284;58.364;15.550;2023-07-31T00:58:47;10.40;;;3.30;;
20251;SDS011;10284;58.364;15.550;2023-07-31T01:01:12;20.20;;;4.43;;
20251;SDS011;10284;58.364;15.550;2023-07-31T01:03:38;10.10;;;3.33;;
20251;SDS011;10284;58.364;15.550;2023-07-31T01:08:54;6.10;;;2.85;;
20251;SDS011;10284;58.364;15.550;2023-07-31T01:11:27;9.13;;;3.05;;
20251;SDS011;10284;58.364;15.550;2023-07-31T01:13:54;9.88;;;3.70;;
20251;SDS011;10284;58.364;15.550;2023-07-31T01:16:20;12.20;;;3.53;;
20251;SDS011;10284;58.364;15.550;2023-07-31T01:18:45;10.55;;;4.00;;
20251;SDS011;10284;58.364;15.550;2023-07-31T01:26:34;8.13;;;3.83;;
20251;SDS011;10284;58.364;15.550;2023-07-31T01:31:43;10.27;;;4.30;;
20251;SDS011;10284;58.364;15.550;2023-07-31T01:34:10;7.70;;;3.50;;
20251;SDS011;10284;58.364;15.550;2023-07-31T01:36:36;8.25;;;3.50;;
20251;SDS011;10284;58.364;15.550;2023-07-31T01:39:02;8.30;;;4.20;;
20251;SDS011;10284;58.364;15.550;2023-07-31T01:41:28;7.00;;;3.95;;
20251;SDS011;10284;58.364;15.550;2023-07-31T01:43:54;11.10;;;4.47;;
20251;SDS011;10284;58.364;15.550;2023-07-31T01:46:19;7.00;;;3.83;;
20251;SDS011;10284;58.364;15.550;2023-07-31T01:48:45;8.55;;;4.32;;
20251;SDS011;10284;58.364;15.550;2023-07-31T01:51:10;12.32;;;3.80;;
20251;SDS011;10284;58.364;15.550;2023-07-31T01:53:36;9.23;;;4.07;;
20251;SDS011;10284;58.364;15.550;2023-07-31T01:56:01;10.85;;;4.40;;
20251;SDS011;10284;58.364;15.550;2023-07-31T01:58:26;6.43;;;3.60;;
20251;SDS011;10284;58.364;15.550;2023-07-31T02:00:52;6.82;;;4.50;;
20251;SDS011;10284;58.364;15.550;2023-07-31T02:03:17;6.68;;;4.18;;
20251;SDS011;10284;58.364;15.550;2023-07-31T02:05:49;7.35;;;4.20;;
20251;SDS011;10284;58.364;15.550;2023-07-31T02:08:15;8.18;;;4.05;;
20251;SDS011;10284;58.364;15.550;2023-07-31T02:10:41;10.88;;;4.38;;
20251;SDS011;10284;58.364;15.550;2023-07-31T02:13:06;6.63;;;3.97;;
20251;SDS011;10284;58.364;15.550;2023-07-31T02:15:31;8.80;;;4.05;;
20251;SDS011;10284;58.364;15.550;2023-07-31T02:17:57;12.88;;;4.63;;
20251;SDS011;10284;58.364;15.550;2023-07-31T02:20:23;5.95;;;4.28;;
20251;SDS011;10284;58.364;15.550;2023-07-31T02:22:48;10.02;;;4.10;;
20251;SDS011;10284;58.364;15.550;2023-07-31T02:25:14;7.10;;;4.32;;
20251;SDS011;10284;58.364;15.550;2023-07-31T02:27:39;7.85;;;4.38;;
20251;SDS011;10284;58.364;15.550;2023-07-31T02:30:05;8.50;;;4.53;;
20251;SDS011;10284;58.364;15.550;2023-07-31T02:32:31;5.07;;;4.15;;
20251;SDS011;10284;58.364;15.550;2023-07-31T02:34:56;8.48;;;4.38;;
20251;SDS011;10284;58.364;15.550;2023-07-31T02:37:22;8.40;;;4.60;;
20251;SDS011;10284;58.364;15.550;2023-07-31T02:39:48;6.25;;;4.43;;
20251;SDS011;10284;58.364;15.550;2023-07-31T02:42:14;6.55;;;4.72;;
20251;SDS011;10284;58.364;15.550;2023-07-31T02:44:39;7.90;;;4.47;;
20251;SDS011;10284;58.364;15.550;2023-07-31T02:47:05;7.78;;;4.68;;
20251;SDS011;10284;58.364;15.550;2023-07-31T02:49:30;8.50;;;4.90;;
20251;SDS011;10284;58.364;15.550;2023-07-31T02:51:56;9.05;;;4.82;;
20251;SDS011;10284;58.364;15.550;2023-07-31T02:54:21;7.28;;;4.60;;
20251;SDS011;10284;58.364;15.550;2023-07-31T02:56:47;9.05;;;4.82;;
20251;SDS011;10284;58.364;15.550;2023-07-31T02:59:13;6.63;;;4.85;;
20251;SDS011;10284;58.364;15.550;2023-07-31T03:01:38;6.40;;;4.55;;
20251;SDS011;10284;58.364;15.550;2023-07-31T03:04:04;7.38;;;4.90;;
20251;SDS011;10284;58.364;15.550;2023-07-31T03:06:29;9.15;;;4.82;;
20251;SDS011;10284;58.364;15.550;2023-07-31T03:08:55;9.18;;;4.53;;
20251;SDS011;10284;58.364;15.550;2023-07-31T03:11:20;6.57;;;4.80;;
20251;SDS011;10284;58.364;15.550;2023-07-31T03:13:46;8.32;;;4.82;;
20251;SDS011;10284;58.364;15.550;2023-07-31T03:16:11;6.60;;;4.43;;
20251;SDS011;10284;58.364;15.550;2023-07-31T03:18:36;7.32;;;4.25;;
20251;SDS011;10284;58.364;15.550;2023-07-31T03:21:02;7.22;;;4.50;;
20251;SDS011;10284;58.364;15.550;2023-07-31T03:23:27;9.70;;;4.32;;
20251;SDS011;10284;58.364;15.550;2023-07-31T03:26:00;7.25;;;4.50;;
20251;SDS011;10284;58.364;15.550;2023-07-31T03:28:26;6.15;;;4.57;;
20251;SDS011;10284;58.364;15.550;2023-07-31T03:30:52;9.48;;;5.20;;
20251;SDS011;10284;58.364;15.550;2023-07-31T03:33:18;7.60;;;4.47;;
20251;SDS011;10284;58.364;15.550;2023-07-31T03:35:43;5.78;;;4.72;;
20251;SDS011;10284;58.364;15.550;2023-07-31T03:38:09;10.55;;;5.20;;
20251;SDS011;10284;58.364;15.550;2023-07-31T03:40:34;7.18;;;3.97;;
20251;SDS011;10284;58.364;15.550;2023-07-31T03:43:00;6.82;;;3.83;;
20251;SDS011;10284;58.364;15.550;2023-07-31T03:45:25;6.38;;;3.78;;
20251;SDS011;10284;58.364;15.550;2023-07-31T03:47:50;7.50;;;4.10;;
20251;SDS011;10284;58.364;15.550;2023-07-31T03:50:16;5.88;;;3.85;;
20251;SDS011;10284;58.364;15.550;2023-07-31T03:52:41;8.15;;;3.80;;
20251;SDS011;10284;58.364;15.550;2023-07-31T03:55:07;4.18;;;3.78;;
20251;SDS011;10284;58.364;15.550;2023-07-31T03:57:32;6.82;;;3.90;;
20251;SDS011;10284;58.364;15.550;2023-07-31T03:59:58;4.88;;;3.70;;
20251;SDS011;10284;58.364;15.550;2023-07-31T04:02:24;6.10;;;3.97;;
20251;SDS011;10284;58.364;15.550;2023-07-31T04:04:49;5.35;;;4.45;;
20251;SDS011;10284;58.364;15.550;2023-07-31T04:07:14;5.60;;;3.90;;
20251;SDS011;10284;58.364;15.550;2023-07-31T04:09:40;5.28;;;4.00;;
20251;SDS011;10284;58.364;15.550;2023-07-31T04:12:06;9.52;;;4.50;;
20251;SDS011;10284;58.364;15.550;2023-07-31T04:14:31;6.18;;;4.55;;
20251;SDS011;10284;58.364;15.550;2023-07-31T04:16:57;6.18;;;4.50;;
20251;SDS011;10284;58.364;15.550;2023-07-31T04:19:22;6.65;;;4.00;;
20251;SDS011;10284;58.364;15.550;2023-07-31T04:21:48;8.18;;;4.35;;
20251;SDS011;10284;58.364;15.550;2023-07-31T04:24:13;6.75;;;4.05;;
20251;SDS011;10284;58.364;15.550;2023-07-31T04:26:38;7.43;;;4.68;;
20251;SDS011;10284;58.364;15.550;2023-07-31T04:29:04;5.20;;;3.65;;
20251;SDS011;10284;58.364;15.550;2023-07-31T04:31:29;7.45;;;4.45;;
20251;SDS011;10284;58.364;15.550;2023-07-31T04:33:55;5.40;;;3.67;;
20251;SDS011;10284;58.364;15.550;2023-07-31T04:36:21;4.55;;;3.63;;
20251;SDS011;10284;58.364;15.550;2023-07-31T04:38:46;6.70;;;4.10;;
20251;SDS011;10284;58.364;15.550;2023-07-31T04:41:12;4.88;;;3.80;;
20251;SDS011;10284;58.364;15.550;2023-07-31T04:43:37;6.00;;;3.97;;
20251;SDS011;10284;58.364;15.550;2023-07-31T04:46:04;5.25;;;3.75;;
20251;SDS011;10284;58.364;15.550;2023-07-31T04:48:30;8.40;;;4.20;;
20251;SDS011;10284;58.364;15.550;2023-07-31T04:50:55;8.35;;;3.95;;
20251;SDS011;10284;58.364;15.550;2023-07-31T04:53:21;6.47;;;4.13;;
20251;SDS011;10284;58.364;15.550;2023-07-31T04:55:46;7.80;;;4.18;;
20251;SDS011;10284;58.364;15.550;2023-07-31T04:58:12;5.47;;;3.90;;
20251;SDS011;10284;58.364;15.550;2023-07-31T05:00:37;4.97;;;4.20;;
20251;SDS011;10284;58.364;15.550;2023-07-31T05:03:03;6.70;;;4.40;;
20251;SDS011;10284;58.364;15.550;2023-07-31T05:05:28;7.13;;;4.22;;
20251;SDS011;10284;58.364;15.550;2023-07-31T05:07:53;6.82;;;4.07;;
20251;SDS011;10284;58.364;15.550;2023-07-31T05:10:19;8.45;;;4.80;;
20251;SDS011;10284;58.364;15.550;2023-07-31T05:12:44;7.22;;;4.93;;
20251;SDS011;10284;58.364;15.550;2023-07-31T05:15:10;7.60;;;4.60;;
20251;SDS011;10284;58.364;15.550;2023-07-31T05:17:35;8.10;;;4.10;;
20251;SDS011;10284;58.364;15.550;2023-07-31T05:20:01;8.57;;;4.40;;
20251;SDS011;10284;58.364;15.550;2023-07-31T05:22:26;6.82;;;3.97;;
20251;SDS011;10284;58.364;15.550;2023-07-31T05:24:51;6.60;;;4.32;;
20251;SDS011;10284;58.364;15.550;2023-07-31T05:27:19;8.40;;;3.70;;
20251;SDS011;10284;58.364;15.550;2023-07-31T05:29:44;9.05;;;4.18;;
20251;SDS011;10284;58.364;15.550;2023-07-31T05:32:10;9.85;;;4.05;;
20251;SDS011;10284;58.364;15.550;2023-07-31T05:34:35;8.43;;;4.07;;
20251;SDS011;10284;58.364;15.550;2023-07-31T05:37:01;7.22;;;3.65;;
20251;SDS011;10284;58.364;15.550;2023-07-31T05:39:26;6.32;;;3.70;;
20251;SDS011;10284;58.364;15.550;2023-07-31T05:41:52;6.68;;;3.40;;
20251;SDS011;10284;58.364;15.550;2023-07-31T05:44:17;5.85;;;4.00;;
20251;SDS011;10284;58.364;15.550;2023-07-31T05:46:42;5.50;;;4.00;;
20251;SDS011;10284;58.364;15.550;2023-07-31T05:49:08;8.93;;;4.30;;
20251;SDS011;10284;58.364;15.550;2023-07-31T05:51:33;6.53;;;4.45;;
20251;SDS011;10284;58.364;15.550;2023-07-31T05:53:59;5.15;;;3.75;;
20251;SDS011;10284;58.364;15.550;2023-07-31T05:56:24;5.00;;;4.00;;
20251;SDS011;10284;58.364;15.550;2023-07-31T05:58:52;8.63;;;3.55;;
20251;SDS011;10284;58.364;15.550;2023-07-31T06:01:17;7.43;;;3.47;;
20251;SDS011;10284;58.364;15.550;2023-07-31T06:03:42;6.88;;;3.78;;
20251;SDS011;10284;58.364;15.550;2023-07-31T06:06:08;5.88;;;3.60;;
20251;SDS011;10284;58.364;15.550;2023-07-31T06:08:34;6.38;;;3.50;;
20251;SDS011;10284;58.364;15.550;2023-07-31T06:10:59;6.88;;;3.58;;
20251;SDS011;10284;58.364;15.550;2023-07-31T06:13:25;6.05;;;3.67;;
20251;SDS011;10284;58.364;15.550;2023-07-31T06:15:50;5.85;;;3.53;;
20251;SDS011;10284;58.364;15.550;2023-07-31T06:18:16;5.35;;;3.30;;
20251;SDS011;10284;58.364;15.550;2023-07-31T06:20:41;6.10;;;3.00;;
20251;SDS011;10284;58.364;15.550;2023-07-31T06:23:07;6.15;;;3.30;;
20251;SDS011;10284;58.364;15.550;2023-07-31T06:25:32;7.68;;;2.75;;
20251;SDS011;10284;58.364;15.550;2023-07-31T06:27:58;6.93;;;3.15;;
20251;SDS011;10284;58.364;15.550;2023-07-31T06:30:23;6.60;;;3.13;;
20251;SDS011;10284;58.364;15.550;2023-07-31T06:32:49;9.30;;;2.80;;
20251;SDS011;10284;58.364;15.550;2023-07-31T06:35:14;6.53;;;2.75;;
20251;SDS011;10284;58.364;15.550;2023-07-31T06:37:40;7.28;;;2.55;;
20251;SDS011;10284;58.364;15.550;2023-07-31T06:40:08;7.22;;;3.05;;
20251;SDS011;10284;58.364;15.550;2023-07-31T06:42:34;6.97;;;2.65;;
20251;SDS011;10284;58.364;15.550;2023-07-31T06:45:00;6.22;;;2.47;;
20251;SDS011;10284;58.364;15.550;2023-07-31T06:47:26;4.63;;;2.60;;
20251;SDS011;10284;58.364;15.550;2023-07-31T06:49:51;5.45;;;2.50;;
20251;SDS011;10284;58.364;15.550;2023-07-31T06:52:17;8.15;;;2.30;;
20251;SDS011;10284;58.364;15.550;2023-07-31T06:54:42;5.22;;;2.05;;
20251;SDS011;10284;58.364;15.550;2023-07-31T06:57:08;5.70;;;2.58;;
20251;SDS011;10284;58.364;15.550;2023-07-31T06:59:33;4.65;;;2.28;;
20251;SDS011;10284;58.364;15.550;2023-07-31T07:01:58;4.63;;;2.40;;
20251;SDS011;10284;58.364;15.550;2023-07-31T07:04:24;6.78;;;2.45;;
20251;SDS011;10284;58.364;15.550;2023-07-31T07:06:49;3.97;;;2.10;;
20251;SDS011;10284;58.364;15.550;2023-07-31T07:09:15;7.88;;;2.85;;
20251;SDS011;10284;58.364;15.550;2023-07-31T07:11:40;6.65;;;2.53;;
20251;SDS011;10284;58.364;15.550;2023-07-31T07:14:06;7.72;;;2.60;;
20251;SDS011;10284;58.364;15.550;2023-07-31T07:16:31;5.00;;;2.60;;
20251;SDS011;10284;58.364;15.550;2023-07-31T07:18:57;6.13;;;2.83;;
20251;SDS011;10284;58.364;15.550;2023-07-31T07:21:22;7.85;;;2.50;;
20251;SDS011;10284;58.364;15.550;2023-07-31T07:23:48;6.78;;;2.90;;
20251;SDS011;10284;58.364;15.550;2023-07-31T07:26:13;6.20;;;2.65;;
20251;SDS011;10284;58.364;15.550;2023-07-31T07:28:39;5.72;;;2.70;;
20251;SDS011;10284;58.364;15.550;2023-07-31T07:31:04;6.45;;;2.75;;
20251;SDS011;10284;58.364;15.550;2023-07-31T07:33:30;7.45;;;2.67;;
20251;SDS011;10284;58.364;15.550;2023-07-31T07:35:59;6.70;;;3.00;;
20251;SDS011;10284;58.364;15.550;2023-07-31T07:38:25;5.55;;;2.75;;
20251;SDS011;10284;58.364;15.550;2023-07-31T07:40:50;4.20;;;2.60;;
20251;SDS011;10284;58.364;15.550;2023-07-31T07:43:18;4.28;;;2.72;;
20251;SDS011;10284;58.364;15.550;2023-07-31T07:45:43;7.50;;;2.80;;
20251;SDS011;10284;58.364;15.550;2023-07-31T07:48:08;5.80;;;2.20;;
20251;SDS011;10284;58.364;15.550;2023-07-31T07:50:34;5.80;;;2.53;;
20251;SDS011;10284;58.364;15.550;2023-07-31T07:52:59;5.72;;;2.30;;
20251;SDS011;10284;58.364;15.550;2023-07-31T07:55:25;7.40;;;2.35;;
20251;SDS011;10284;58.364;15.550;2023-07-31T07:57:50;6.57;;;2.25;;
20251;SDS011;10284;58.364;15.550;2023-07-31T08:00:16;3.80;;;1.95;;
20251;SDS011;10284;58.364;15.550;2023-07-31T08:02:42;6.55;;;2.00;;
20251;SDS011;10284;58.364;15.550;2023-07-31T08:05:08;7.43;;;2.65;;
20251;SDS011;10284;58.364;15.550;2023-07-31T08:07:33;5.75;;;2.50;;
20251;SDS011;10284;58.364;15.550;2023-07-31T08:09:59;6.72;;;2.67;;
20251;SDS011;10284;58.364;15.550;2023-07-31T08:12:24;4.05;;;2.10;;
20251;SDS011;10284;58.364;15.550;2023-07-31T08:14:50;6.22;;;2.15;;
20251;SDS011;10284;58.364;15.550;2023-07-31T08:17:16;5.82;;;2.33;;
20251;SDS011;10284;58.364;15.550;2023-07-31T08:19:41;4.25;;;2.03;;
20251;SDS011;10284;58.364;15.550;2023-07-31T08:22:07;13.73;;;2.50;;
20251;SDS011;10284;58.364;15.550;2023-07-31T08:24:32;5.25;;;2.22;;
20251;SDS011;10284;58.364;15.550;2023-07-31T08:26:58;4.70;;;1.58;;
20251;SDS011;10284;58.364;15.550;2023-07-31T08:29:23;6.75;;;2.20;;
20251;SDS011;10284;58.364;15.550;2023-07-31T08:31:49;2.80;;;1.60;;
20251;SDS011;10284;58.364;15.550;2023-07-31T08:34:15;2.95;;;1.70;;
20251;SDS011;10284;58.364;15.550;2023-07-31T08:36:40;4.85;;;2.10;;
20251;SDS011;10284;58.364;15.550;2023-07-31T08:39:06;3.95;;;1.70;;
20251;SDS011;10284;58.364;15.550;2023-07-31T08:41:31;6.28;;;1.88;;
20251;SDS011;10284;58.364;15.550;2023-07-31T08:43:56;7.47;;;2.00;;
20251;SDS011;10284;58.364;15.550;2023-07-31T08:46:22;4.65;;;1.80;;
20251;SDS011;10284;58.364;15.550;2023-07-31T08:48:48;6.75;;;2.10;;
20251;SDS011;10284;58.364;15.550;2023-07-31T08:51:14;4.00;;;1.58;;
20251;SDS011;10284;58.364;15.550;2023-07-31T08:53:40;4.90;;;1.88;;
20251;SDS011;10284;58.364;15.550;2023-07-31T08:56:06;6.13;;;2.17;;
20251;SDS011;10284;58.364;15.550;2023-07-31T08:58:32;3.08;;;1.55;;
20251;SDS011;10284;58.364;15.550;2023-07-31T09:00:58;3.97;;;1.90;;
20251;SDS011;10284;58.364;15.550;2023-07-31T09:03:26;6.32;;;2.20;;
20251;SDS011;10284;58.364;15.550;2023-07-31T09:05:51;3.65;;;1.70;;
20251;SDS011;10284;58.364;15.550;2023-07-31T09:08:19;4.85;;;1.90;;
20251;SDS011;10284;58.364;15.550;2023-07-31T09:10:46;6.32;;;2.15;;
20251;SDS011;10284;58.364;15.550;2023-07-31T09:13:12;4.60;;;1.98;;
20251;SDS011;10284;58.364;15.550;2023-07-31T09:15:43;4.30;;;1.77;;
20251;SDS011;10284;58.364;15.550;2023-07-31T09:18:09;7.95;;;1.92;;
20251;SDS011;10284;58.364;15.550;2023-07-31T09:20:35;3.45;;;1.65;;
20251;SDS011;10284;58.364;15.550;2023-07-31T09:23:11;5.00;;;1.85;;
20251;SDS011;10284;58.364;15.550;2023-07-31T09:25:38;3.53;;;1.70;;
20251;SDS011;10284;58.364;15.550;2023-07-31T09:28:05;4.10;;;1.80;;
20251;SDS011;10284;58.364;15.550;2023-07-31T09:30:32;4.22;;;1.73;;
20251;SDS011;10284;58.364;15.550;2023-07-31T09:33:09;4.90;;;1.77;;
20251;SDS011;10284;58.364;15.550;2023-07-31T09:35:35;3.88;;;1.73;;
20251;SDS011;10284;58.364;15.550;2023-07-31T09:38:08;4.03;;;1.80;;
20251;SDS011;10284;58.364;15.550;2023-07-31T09:40:37;3.60;;;1.80;;
20251;SDS011;10284;58.364;15.550;2023-07-31T09:43:05;5.18;;;1.70;;
20251;SDS011;10284;58.364;15.550;2023-07-31T09:45:33;3.90;;;1.63;;
20251;SDS011;10284;58.364;15.550;2023-07-31T09:48:00;4.40;;;1.98;;
20251;SDS011;10284;58.364;15.550;2023-07-31T09:50:25;2.30;;;1.63;;
20251;SDS011;10284;58.364;15.550;2023-07-31T09:52:53;3.67;;;2.10;;
20251;SDS011;10284;58.364;15.550;2023-07-31T09:55:19;4.07;;;1.85;;
20251;SDS011;10284;58.364;15.550;2023-07-31T09:57:45;3.58;;;1.77;;
20251;SDS011;10284;58.364;15.550;2023-07-31T10:00:12;5.15;;;1.52;;
20251;SDS011;10284;58.364;15.550;2023-07-31T10:02:39;4.18;;;1.55;;
20251;SDS011;10284;58.364;15.550;2023-07-31T10:05:05;3.75;;;1.48;;
20251;SDS011;10284;58.364;15.550;2023-07-31T10:07:33;3.15;;;1.58;;
20251;SDS011;10284;58.364;15.550;2023-07-31T10:10:03;4.13;;;1.65;;
20251;SDS011;10284;58.364;15.550;2023-07-31T10:12:29;3.30;;;1.50;;
20251;SDS011;10284;58.364;15.550;2023-07-31T10:14:56;4.20;;;1.60;;
20251;SDS011;10284;58.364;15.550;2023-07-31T10:17:25;2.83;;;1.30;;
20251;SDS011;10284;58.364;15.550;2023-07-31T10:19:51;3.80;;;1.42;;
20251;SDS011;10284;58.364;15.550;2023-07-31T10:22:20;6.10;;;1.60;;
20251;SDS011;10284;58.364;15.550;2023-07-31T10:24:46;2.97;;;1.45;;
20251;SDS011;10284;58.364;15.550;2023-07-31T10:27:12;3.47;;;1.40;;
20251;SDS011;10284;58.364;15.550;2023-07-31T10:29:41;2.92;;;1.30;;
20251;SDS011;10284;58.364;15.550;2023-07-31T10:32:08;1.98;;;1.70;;
20251;SDS011;10284;58.364;15.550;2023-07-31T10:34:38;3.80;;;1.40;;
20251;SDS011;10284;58.364;15.550;2023-07-31T10:37:21;3.22;;;1.20;;
20251;SDS011;10284;58.364;15.550;2023-07-31T10:39:57;3.78;;;1.50;;
20251;SDS011;10284;58.364;15.550;2023-07-31T10:42:27;1.98;;;1.50;;
20251;SDS011;10284;58.364;15.550;2023-07-31T10:45:12;2.17;;;1.10;;
20251;SDS011;10284;58.364;15.550;2023-07-31T10:47:45;2.58;;;1.38;;
20251;SDS011;10284;58.364;15.550;2023-07-31T10:50:20;2.90;;;1.33;;
20251;SDS011;10284;58.364;15.550;2023-07-31T10:52:51;2.25;;;0.95;;
20251;SDS011;10284;58.364;15.550;2023-07-31T10:58:22;2.22;;;1.23;;
20251;SDS011;10284;58.364;15.550;2023-07-31T11:00:47;3.45;;;1.05;;
20251;SDS011;10284;58.364;15.550;2023-07-31T11:03:14;2.65;;;1.20;;
20251;SDS011;10284;58.364;15.550;2023-07-31T11:05:54;2.15;;;1.17;;
20251;SDS011;10284;58.364;15.550;2023-07-31T11:08:26;1.17;;;0.70;;
20251;SDS011;10284;58.364;15.550;2023-07-31T11:13:34;2.20;;;1.10;;
20251;SDS011;10284;58.364;15.550;2023-07-31T11:16:05;4.32;;;1.45;;
20251;SDS011;10284;58.364;15.550;2023-07-31T11:18:31;4.18;;;1.00;;
20251;SDS011;10284;58.364;15.550;2023-07-31T11:20:56;1.73;;;0.82;;
20251;SDS011;10284;58.364;15.550;2023-07-31T11:23:22;2.15;;;1.08;;
20251;SDS011;10284;58.364;15.550;2023-07-31T11:25:48;5.13;;;1.48;;
20251;SDS011;10284;58.364;15.550;2023-07-31T11:28:15;3.45;;;1.27;;
20251;SDS011;10284;58.364;15.550;2023-07-31T11:30:42;2.20;;;1.30;;
20251;SDS011;10284;58.364;15.550;2023-07-31T11:33:08;2.00;;;1.10;;
20251;SDS011;10284;58.364;15.550;2023-07-31T11:35:36;3.22;;;1.20;;
20251;SDS011;10284;58.364;15.550;2023-07-31T11:38:10;1.98;;;1.00;;
20251;SDS011;10284;58.364;15.550;2023-07-31T11:40:42;2.38;;;1.00;;
20251;SDS011;10284;58.364;15.550;2023-07-31T11:43:08;2.08;;;1.13;;
20251;SDS011;10284;58.364;15.550;2023-07-31T11:45:33;3.55;;;1.20;;
20251;SDS011;10284;58.364;15.550;2023-07-31T11:48:00;2.53;;;1.00;;
20251;SDS011;10284;58.364;15.550;2023-07-31T11:50:26;2.63;;;1.10;;
20251;SDS011;10284;58.364;15.550;2023-07-31T11:52:55;2.33;;;0.90;;
20251;SDS011;10284;58.364;15.550;2023-07-31T11:55:22;1.75;;;1.08;;
20251;SDS011;10284;58.364;15.550;2023-07-31T11:57:48;3.75;;;1.30;;
20251;SDS011;10284;58.364;15.550;2023-07-31T12:00:14;1.40;;;0.80;;
20251;SDS011;10284;58.364;15.550;2023-07-31T12:02:40;4.13;;;1.20;;
20251;SDS011;10284;58.364;15.550;2023-07-31T12:05:14;4.10;;;1.00;;
20251;SDS011;10284;58.364;15.550;2023-07-31T12:07:47;1.30;;;1.15;;
20251;SDS011;10284;58.364;15.550;2023-07-31T12:10:26;1.83;;;1.00;;
20251;SDS011;10284;58.364;15.550;2023-07-31T12:15:32;2.33;;;1.02;;
20251;SDS011;10284;58.364;15.550;2023-07-31T12:18:12;3.85;;;1.20;;
20251;SDS011;10284;58.364;15.550;2023-07-31T12:20:41;2.17;;;1.08;;
20251;SDS011;10284;58.364;15.550;2023-07-31T12:23:12;4.35;;;1.10;;
20251;SDS011;10284;58.364;15.550;2023-07-31T12:25:39;1.67;;;1.08;;
20251;SDS011;10284;58.364;15.550;2023-07-31T12:28:04;1.52;;;1.10;;
20251;SDS011;10284;58.364;15.550;2023-07-31T12:30:32;3.47;;;1.15;;
20251;SDS011;10284;58.364;15.550;2023-07-31T12:33:03;1.45;;;0.95;;
20251;SDS011;10284;58.364;15.550;2023-07-31T12:35:38;4.28;;;1.00;;
20251;SDS011;10284;58.364;15.550;2023-07-31T12:38:06;3.45;;;0.98;;
20251;SDS011;10284;58.364;15.550;2023-07-31T12:40:32;2.63;;;0.90;;
20251;SDS011;10284;58.364;15.550;2023-07-31T12:42:58;2.05;;;1.00;;
20251;SDS011;10284;58.364;15.550;2023-07-31T12:45:25;3.30;;;1.35;;
20251;SDS011;10284;58.364;15.550;2023-07-31T12:47:52;2.95;;;1.40;;
20251;SDS011;10284;58.364;15.550;2023-07-31T12:50:17;2.30;;;0.75;;
20251;SDS011;10284;58.364;15.550;2023-07-31T12:52:42;2.67;;;0.82;;
20251;SDS011;10284;58.364;15.550;2023-07-31T12:55:08;2.75;;;0.88;;
20251;SDS011;10284;58.364;15.550;2023-07-31T12:57:35;1.98;;;1.05;;
20251;SDS011;10284;58.364;15.550;2023-07-31T13:00:01;1.55;;;0.70;;
20251;SDS011;10284;58.364;15.550;2023-07-31T13:02:26;1.77;;;0.70;;
20251;SDS011;10284;58.364;15.550;2023-07-31T13:04:52;2.25;;;0.60;;
20251;SDS011;10284;58.364;15.550;2023-07-31T13:07:19;4.15;;;0.90;;
20251;SDS011;10284;58.364;15.550;2023-07-31T13:09:45;1.48;;;0.70;;
20251;SDS011;10284;58.364;15.550;2023-07-31T13:12:10;1.50;;;0.80;;
20251;SDS011;10284;58.364;15.550;2023-07-31T13:14:35;2.60;;;0.80;;
20251;SDS011;10284;58.364;15.550;2023-07-31T13:17:01;1.70;;;0.70;;
20251;SDS011;10284;58.364;15.550;2023-07-31T13:19:27;1.83;;;0.70;;
20251;SDS011;10284;58.364;15.550;2023-07-31T13:21:52;1.70;;;0.75;;
20251;SDS011;10284;58.364;15.550;2023-07-31T13:24:17;2.85;;;1.00;;
20251;SDS011;10284;58.364;15.550;2023-07-31T13:26:43;2.17;;;0.93;;
20251;SDS011;10284;58.364;15.550;2023-07-31T13:29:08;3.17;;;1.20;;
20251;SDS011;10284;58.364;15.550;2023-07-31T13:31:34;2.17;;;0.90;;
20251;SDS011;10284;58.364;15.550;2023-07-31T13:33:59;4.28;;;0.98;;
20251;SDS011;10284;58.364;15.550;2023-07-31T13:36:25;3.00;;;0.70;;
20251;SDS011;10284;58.364;15.550;2023-07-31T13:38:50;4.28;;;1.13;;
20251;SDS011;10284;58.364;15.550;2023-07-31T13:41:15;1.25;;;0.70;;
20251;SDS011;10284;58.364;15.550;2023-07-31T13:43:41;5.35;;;1.00;;
20251;SDS011;10284;58.364;15.550;2023-07-31T13:46:07;2.25;;;0.70;;
20251;SDS011;10284;58.364;15.550;2023-07-31T13:48:35;3.35;;;0.82;;
20251;SDS011;10284;58.364;15.550;2023-07-31T13:51:01;1.27;;;0.70;;
20251;SDS011;10284;58.364;15.550;2023-07-31T13:53:27;1.50;;;0.70;;
20251;SDS011;10284;58.364;15.550;2023-07-31T13:55:52;1.98;;;0.60;;
20251;SDS011;10284;58.364;15.550;2023-07-31T13:58:18;1.13;;;0.63;;
20251;SDS011;10284;58.364;15.550;2023-07-31T14:00:43;4.03;;;0.70;;
20251;SDS011;10284;58.364;15.550;2023-07-31T14:03:09;1.50;;;0.65;;
20251;SDS011;10284;58.364;15.550;2023-07-31T14:05:34;3.47;;;0.70;;
20251;SDS011;10284;58.364;15.550;2023-07-31T14:08:00;1.63;;;0.52;;
20251;SDS011;10284;58.364;15.550;2023-07-31T14:10:25;1.33;;;0.40;;
20251;SDS011;10284;58.364;15.550;2023-07-31T14:12:51;1.17;;;0.50;;
20251;SDS011;10284;58.364;15.550;2023-07-31T14:15:16;2.75;;;0.60;;
20251;SDS011;10284;58.364;15.550;2023-07-31T14:17:42;2.20;;;0.68;;
20251;SDS011;10284;58.364;15.550;2023-07-31T14:20:07;1.00;;;0.50;;
20251;SDS011;10284;58.364;15.550;2023-07-31T14:22:33;0.68;;;0.30;;
20251;SDS011;10284;58.364;15.550;2023-07-31T14:24:59;4.32;;;0.50;;
20251;SDS011;10284;58.364;15.550;2023-07-31T14:27:25;0.52;;;0.38;;
20251;SDS011;10284;58.364;15.550;2023-07-31T14:29:50;3.60;;;0.40;;
20251;SDS011;10284;58.364;15.550;2023-07-31T14:32:16;0.73;;;0.40;;
20251;SDS011;10284;58.364;15.550;2023-07-31T14:34:41;1.40;;;0.45;;
20251;SDS011;10284;58.364;15.550;2023-07-31T14:37:07;0.93;;;0.60;;
20251;SDS011;10284;58.364;15.550;2023-07-31T14:39:32;0.77;;;0.50;;
20251;SDS011;10284;58.364;15.550;2023-07-31T14:41:58;1.38;;;0.50;;
20251;SDS011;10284;58.364;15.550;2023-07-31T14:44:23;1.92;;;0.52;;
20251;SDS011;10284;58.364;15.550;2023-07-31T14:46:49;1.63;;;0.60;;